Lyndonville, VT (05851)

10:29 PM EST on February 08, 2016 (GMT -0500)
Wheelock | | Change Station
CLOSE
Current Station
Personal Weather Station
Location: Lyndonville, VT
Elevation: 1207 ft
Nearby Weather Stations

Elev 1207 ft 44.56 °N, 72.09 °W | Updated 3 minutes ago

Light Snow
Light Snow
19.2 °F
Feels Like 19 °F
N
1.0
Wind Variable Wind from North
Gusts 2.0 mph

Today
High -- | Low -- °F
--% Chance of Precip.
Yesterday
High -- | Low -- °F
Precip. -- in
Pressure 29.79 in
Visibility 2.5 miles
Clouds Overcast 1000 ft
Windchill 19 °F
Dew Point 14 °F
Humidity 79%
Rainfall 0.02 in
Snow Depth Not available.
6:58 AM 5:06 PM
New Moon, 0% visible
METAR KCDA 090315Z AUTO 35007KT 2 1/2SM -SN OVC010 M08/M10 A2979 RMK AO2 T10801100
Pressure 29.79 in
Visibility 2.5 miles
Clouds Overcast 1000 ft
Windchill 19 °F
Dew Point 14 °F
Humidity 79%
Rainfall 0.02 in
Snow Depth Not available.
6:58 AM 5:06 PM
New Moon, 0% visible
METAR KCDA 090315Z AUTO 35007KT 2 1/2SM -SN OVC010 M08/M10 A2979 RMK AO2 T10801100

10-Day Weather Forecast

Almanac

Astronomy

Feb. 08, 2016 Rise Set
Actual Time
Civil Twilight
Nautical Twilight
Astronomical Twilight
Moon
Length of Visible Light
Length of Day
Tomorrow will be .
, % of the Moon is Illuminated

Today's Extremes

State Highs State Lows

Community

WunderPhotos

Upload Photos

1,891,527 photos uploaded!

WunderBlog® & News

Nearby

Air Quality

  Air Quality AQ Index Pollutant
Not available.

Snow Depth

Station Depth Elevation

Earthquake Activity

City Distance Mag. Time & Date
Minimum magnitude displayed is 2.5.

Coastal Water Temperatures

Place Temperature

Stations

Nearby Weather Stations

Station Location Temp. Windchill Dew Point Humidity Wind Precip. Elev Updated Type
                   

Watches & Warnings

There are currently no watches in effect.